createdAt,value
2022-08-03T00:01:28.596Z,17.10
2022-08-03T00:04:23.328Z,17.00
2022-08-03T00:07:29.210Z,17.10
2022-08-03T00:10:23.824Z,17.10
2022-08-03T00:13:18.757Z,17.10
2022-08-03T00:16:14.629Z,17.10
2022-08-03T00:19:09.604Z,17.20
2022-08-03T00:22:04.309Z,17.30
2022-08-03T00:24:58.893Z,17.30
2022-08-03T00:27:54.488Z,17.30
2022-08-03T00:30:50.763Z,17.40
2022-08-03T00:33:58.888Z,17.50
2022-08-03T00:36:54.690Z,17.50
2022-08-03T00:39:49.345Z,17.60
2022-08-03T00:42:55.114Z,17.70
2022-08-03T00:45:50.149Z,17.80
2022-08-03T00:48:45.850Z,17.90
2022-08-03T00:51:41.097Z,18.00
2022-08-03T00:54:36.867Z,18.10
2022-08-03T00:57:34.039Z,18.20
2022-08-03T01:00:30.227Z,18.20
2022-08-03T01:03:24.861Z,18.40
2022-08-03T01:07:05.994Z,18.40
2022-08-03T01:10:27.142Z,18.50
2022-08-03T01:14:04.611Z,18.60
2022-08-03T01:17:12.712Z,18.80
2022-08-03T01:20:13.492Z,18.80
2022-08-03T01:23:28.836Z,18.90
2022-08-03T01:27:00.709Z,19.00
2022-08-03T01:30:02.021Z,19.10
2022-08-03T01:33:24.068Z,19.20
2022-08-03T01:36:35.669Z,19.20
2022-08-03T01:39:33.660Z,19.30
2022-08-03T01:42:28.920Z,19.30
2022-08-03T01:45:26.039Z,19.30
2022-08-03T01:48:21.801Z,19.40
2022-08-03T01:51:20.522Z,19.40
2022-08-03T01:54:16.645Z,19.40
2022-08-03T01:57:12.782Z,19.50
2022-08-03T02:00:11.116Z,19.70
2022-08-03T02:03:09.105Z,19.70
2022-08-03T02:07:01.772Z,19.70
2022-08-03T02:09:22.733Z,19.60
2022-08-03T02:12:17.929Z,19.60
2022-08-03T02:15:14.203Z,19.70
2022-08-03T02:18:12.007Z,19.80
2022-08-03T02:21:11.300Z,19.80
2022-08-03T02:24:07.143Z,19.90
2022-08-03T02:27:02.987Z,20.00
2022-08-03T02:30:10.378Z,20.00
2022-08-03T02:33:06.358Z,20.10
2022-08-03T02:36:04.511Z,20.10
2022-08-03T02:39:04.256Z,20.10
2022-08-03T02:42:03.737Z,20.20
2022-08-03T02:45:02.318Z,20.20
2022-08-03T02:48:01.920Z,20.30
2022-08-03T02:50:59.807Z,20.40
2022-08-03T02:53:56.014Z,20.50
2022-08-03T02:56:51.454Z,20.70
2022-08-03T02:59:47.624Z,20.70
2022-08-03T03:02:44.611Z,20.70
2022-08-03T03:05:52.072Z,20.80
2022-08-03T03:08:50.847Z,20.90
2022-08-03T03:11:47.796Z,20.90
2022-08-03T03:14:42.820Z,20.90
2022-08-03T03:17:39.058Z,21.00
2022-08-03T03:20:36.163Z,21.00
2022-08-03T03:23:32.486Z,21.00
2022-08-03T03:26:29.093Z,20.90
2022-08-03T03:29:24.940Z,20.90
2022-08-03T03:32:19.739Z,21.00
2022-08-03T03:35:15.871Z,21.10
2022-08-03T03:38:10.561Z,21.10
2022-08-03T03:41:06.254Z,21.00
2022-08-03T03:44:01.157Z,21.10
2022-08-03T03:46:56.746Z,21.10
2022-08-03T03:49:51.826Z,21.10
2022-08-03T03:52:46.956Z,21.10
2022-08-03T03:55:59.317Z,21.10
2022-08-03T03:58:57.849Z,21.10
2022-08-03T04:01:58.932Z,21.30
2022-08-03T04:05:11.705Z,21.30
2022-08-03T04:08:33.593Z,21.30
2022-08-03T04:11:31.999Z,21.30
2022-08-03T04:14:35.692Z,21.50
2022-08-03T04:17:32.638Z,21.60
2022-08-03T04:20:31.362Z,21.60
2022-08-03T04:23:29.485Z,21.70
2022-08-03T04:26:26.637Z,21.90
2022-08-03T04:29:22.648Z,21.90
2022-08-03T04:32:18.789Z,22.00
2022-08-03T04:35:13.721Z,21.90
2022-08-03T04:38:10.491Z,21.90
2022-08-03T04:41:09.162Z,21.90
2022-08-03T04:44:07.352Z,21.90
2022-08-03T04:47:02.471Z,21.80
2022-08-03T04:49:57.606Z,21.80
2022-08-03T04:52:53.092Z,21.80
2022-08-03T04:55:47.694Z,21.90
2022-08-03T04:58:42.321Z,22.00
2022-08-03T05:01:37.315Z,22.00
2022-08-03T05:04:32.091Z,22.00
2022-08-03T05:07:35.889Z,22.00
2022-08-03T05:10:31.249Z,22.00
2022-08-03T05:13:25.906Z,22.00
2022-08-03T05:16:20.655Z,21.90
2022-08-03T05:19:15.303Z,21.90
2022-08-03T05:22:09.893Z,21.90
2022-08-03T05:25:04.709Z,21.90
2022-08-03T05:27:59.272Z,21.90
2022-08-03T05:30:54.012Z,22.00
2022-08-03T05:33:50.109Z,21.90
2022-08-03T05:36:44.713Z,21.80
2022-08-03T05:39:39.557Z,21.90
2022-08-03T05:42:34.415Z,22.00
2022-08-03T05:45:28.991Z,22.10
2022-08-03T05:48:23.601Z,22.20
2022-08-03T05:51:18.719Z,22.30
2022-08-03T05:54:14.556Z,22.40
2022-08-03T05:57:09.127Z,22.30
2022-08-03T06:00:08.515Z,22.40
2022-08-03T06:03:04.000Z,22.40
2022-08-03T06:06:00.354Z,22.30
2022-08-03T06:08:55.706Z,22.30
2022-08-03T06:11:50.298Z,22.30
2022-08-03T06:14:45.048Z,22.40
2022-08-03T06:17:47.979Z,22.50
2022-08-03T06:20:42.581Z,22.50
2022-08-03T06:23:53.947Z,22.50
2022-08-03T06:26:50.329Z,22.50
2022-08-03T06:29:44.942Z,22.50
2022-08-03T06:32:43.202Z,22.50
2022-08-03T06:35:46.828Z,22.50
2022-08-03T06:38:45.145Z,22.50
2022-08-03T06:41:44.707Z,22.60
2022-08-03T06:44:40.069Z,22.70
2022-08-03T06:47:34.608Z,22.70
2022-08-03T06:50:29.226Z,22.70
2022-08-03T06:53:23.824Z,22.70
2022-08-03T06:56:18.493Z,22.70
2022-08-03T07:00:08.895Z,22.70
2022-08-03T07:02:28.437Z,22.70
2022-08-03T07:05:24.425Z,22.70
2022-08-03T07:08:19.684Z,22.70
2022-08-03T07:11:30.135Z,22.70
2022-08-03T07:14:24.873Z,22.70
2022-08-03T07:17:19.532Z,22.60
2022-08-03T07:20:16.375Z,22.60
2022-08-03T07:23:16.081Z,22.60
2022-08-03T07:26:14.412Z,22.50
2022-08-03T07:29:14.882Z,22.50
2022-08-03T07:32:10.175Z,22.50
2022-08-03T07:35:08.731Z,22.50
2022-08-03T07:38:20.816Z,22.50
2022-08-03T07:41:15.670Z,22.50
2022-08-03T07:44:10.212Z,22.50
2022-08-03T07:47:04.753Z,22.40
2022-08-03T07:50:00.626Z,22.40
2022-08-03T07:52:57.395Z,22.40
2022-08-03T07:55:51.987Z,22.40
2022-08-03T07:58:46.943Z,22.30
2022-08-03T08:01:41.675Z,22.20
2022-08-03T08:04:36.658Z,22.10
2022-08-03T08:07:31.175Z,22.10
2022-08-03T08:10:25.905Z,22.10
2022-08-03T08:13:20.501Z,22.00
2022-08-03T08:16:15.057Z,21.90
2022-08-03T08:19:09.807Z,21.90
2022-08-03T08:22:08.159Z,21.90
2022-08-03T08:25:05.398Z,21.90
2022-08-03T08:28:31.452Z,21.90
2022-08-03T08:31:18.555Z,21.80
2022-08-03T08:34:13.349Z,21.80
2022-08-03T08:37:07.946Z,21.80
2022-08-03T08:40:02.649Z,21.80
2022-08-03T08:42:58.890Z,21.80
2022-08-03T08:45:56.020Z,21.80
2022-08-03T08:48:52.644Z,21.70
2022-08-03T08:51:59.063Z,21.70
2022-08-03T08:55:00.145Z,21.70
2022-08-03T08:58:08.099Z,21.70
2022-08-03T09:01:02.173Z,21.70
2022-08-03T09:03:57.286Z,21.60
2022-08-03T09:07:17.614Z,21.60
2022-08-03T09:10:12.682Z,21.60
2022-08-03T09:13:10.426Z,21.60
2022-08-03T09:16:22.671Z,21.50
2022-08-03T09:19:17.500Z,21.50
2022-08-03T09:22:18.804Z,21.40
2022-08-03T09:25:29.168Z,21.40
2022-08-03T09:29:00.204Z,21.30
2022-08-03T09:31:44.342Z,21.30
2022-08-03T09:34:39.569Z,21.30
2022-08-03T09:38:12.048Z,21.30
2022-08-03T09:40:49.699Z,21.30
2022-08-03T09:43:55.981Z,21.30
2022-08-03T09:46:57.773Z,21.30
2022-08-03T09:50:03.614Z,21.30
2022-08-03T09:53:04.813Z,21.30
2022-08-03T09:56:33.399Z,21.10
2022-08-03T09:59:28.033Z,20.90
2022-08-03T10:02:25.694Z,20.70
2022-08-03T10:05:32.998Z,20.50
2022-08-03T10:08:27.854Z,20.40
2022-08-03T10:11:40.938Z,20.30
2022-08-03T10:14:38.576Z,20.20
2022-08-03T10:17:36.170Z,20.20
2022-08-03T10:20:45.834Z,20.10
2022-08-03T10:23:41.965Z,20.00
2022-08-03T10:26:38.610Z,20.00
2022-08-03T10:29:41.009Z,20.00
2022-08-03T10:33:01.099Z,20.00
2022-08-03T10:35:58.946Z,19.90
2022-08-03T10:38:54.779Z,19.90
2022-08-03T10:41:50.345Z,19.80
2022-08-03T10:44:45.022Z,19.80
2022-08-03T10:47:41.131Z,19.80
2022-08-03T10:50:36.021Z,19.80
2022-08-03T10:53:48.855Z,19.70
2022-08-03T10:57:14.308Z,19.60
2022-08-03T11:00:10.613Z,19.50
2022-08-03T11:03:15.555Z,19.40
2022-08-03T11:06:25.840Z,19.30
2022-08-03T11:09:21.129Z,19.20
2022-08-03T11:12:32.185Z,19.10
2022-08-03T11:15:37.234Z,19.10
2022-08-03T11:18:32.115Z,19.00
2022-08-03T11:21:54.195Z,18.90
2022-08-03T11:24:52.361Z,18.90
2022-08-03T11:27:47.102Z,18.80
2022-08-03T11:30:42.672Z,18.80
2022-08-03T11:33:38.280Z,18.80
2022-08-03T11:36:33.291Z,18.80
2022-08-03T11:39:48.750Z,18.80
2022-08-03T11:42:46.424Z,18.80
2022-08-03T11:45:41.004Z,18.80
2022-08-03T11:48:39.701Z,18.80
2022-08-03T11:51:34.439Z,18.70
2022-08-03T11:54:30.284Z,18.60
2022-08-03T11:59:01.616Z,18.50
2022-08-03T12:00:51.483Z,18.40
2022-08-03T12:03:46.502Z,18.40
2022-08-03T12:06:56.454Z,18.40
2022-08-03T12:10:12.660Z,18.30
2022-08-03T12:14:08.891Z,18.30
2022-08-03T12:16:26.786Z,18.30
2022-08-03T12:19:21.280Z,18.20
2022-08-03T12:22:20.142Z,18.10
2022-08-03T12:25:38.861Z,18.10
2022-08-03T12:28:37.434Z,18.10
2022-08-03T12:31:32.980Z,18.10
2022-08-03T12:34:50.719Z,18.10
2022-08-03T12:37:50.984Z,18.10
2022-08-03T12:40:45.594Z,18.00
2022-08-03T12:43:41.271Z,18.00
2022-08-03T12:46:47.778Z,18.00
2022-08-03T12:49:50.691Z,18.00
2022-08-03T12:52:48.379Z,18.00
2022-08-03T12:56:04.606Z,18.00
2022-08-03T12:58:57.538Z,18.00
2022-08-03T13:01:55.110Z,18.00
2022-08-03T13:04:51.989Z,18.00
2022-08-03T13:07:50.308Z,17.90
2022-08-03T13:10:44.858Z,17.90
2022-08-03T13:13:42.713Z,17.80
2022-08-03T13:16:37.260Z,17.80
2022-08-03T13:19:33.306Z,17.80
2022-08-03T13:22:34.665Z,17.80
2022-08-03T13:25:29.309Z,17.80
2022-08-03T13:28:23.843Z,17.80
2022-08-03T13:31:18.522Z,17.70
2022-08-03T13:34:14.430Z,17.80
2022-08-03T13:37:19.953Z,17.80
2022-08-03T13:40:14.685Z,17.80
2022-08-03T13:43:09.412Z,17.80
2022-08-03T13:46:04.014Z,17.80
2022-08-03T13:48:58.687Z,17.80
2022-08-03T13:51:53.153Z,17.80
2022-08-03T13:54:48.102Z,17.80
2022-08-03T13:58:04.030Z,17.80
2022-08-03T14:00:57.433Z,17.80
2022-08-03T14:03:55.378Z,17.80
2022-08-03T14:06:50.493Z,17.80
2022-08-03T14:09:44.993Z,17.80
2022-08-03T14:12:39.519Z,17.80
2022-08-03T14:15:37.297Z,17.80
2022-08-03T14:18:33.811Z,17.70
2022-08-03T14:21:28.629Z,17.80
2022-08-03T14:24:23.340Z,17.80
2022-08-03T14:27:18.479Z,17.80
2022-08-03T14:30:13.929Z,17.80
2022-08-03T14:33:08.550Z,17.80
2022-08-03T14:36:03.290Z,17.80
2022-08-03T14:39:01.212Z,17.80
2022-08-03T14:41:56.109Z,17.80
2022-08-03T14:44:50.839Z,17.80
2022-08-03T14:50:33.073Z,17.80
2022-08-03T14:50:59.812Z,17.70
2022-08-03T14:53:54.316Z,17.70
2022-08-03T14:56:48.861Z,17.60
2022-08-03T14:59:55.461Z,17.70
2022-08-03T15:02:51.787Z,17.60
2022-08-03T15:05:46.744Z,17.60
2022-08-03T15:08:41.218Z,17.50
2022-08-03T15:11:35.722Z,17.50
2022-08-03T15:14:33.284Z,17.50
2022-08-03T15:17:29.392Z,17.50
2022-08-03T15:20:39.317Z,17.50
2022-08-03T15:23:38.367Z,17.50
2022-08-03T15:26:36.610Z,17.50
2022-08-03T15:30:04.759Z,17.40
2022-08-03T15:32:50.451Z,17.50
2022-08-03T15:35:45.245Z,17.50
2022-08-03T15:38:39.749Z,17.40
2022-08-03T15:41:34.549Z,17.40
2022-08-03T15:44:29.033Z,17.50
2022-08-03T15:47:23.514Z,17.50
2022-08-03T15:50:18.029Z,17.40
2022-08-03T15:53:12.575Z,17.40
2022-08-03T15:56:15.393Z,17.30
2022-08-03T15:59:14.246Z,17.20
2022-08-03T16:02:08.897Z,17.20
2022-08-03T16:05:03.474Z,17.10
2022-08-03T16:07:59.072Z,17.20
2022-08-03T16:10:59.293Z,17.10
2022-08-03T16:14:11.869Z,17.00
2022-08-03T16:17:08.501Z,16.90
2022-08-03T16:20:07.484Z,16.90
2022-08-03T16:23:11.464Z,16.80
2022-08-03T16:26:09.141Z,16.80
2022-08-03T16:29:03.817Z,16.90
2022-08-03T16:32:09.602Z,16.80
2022-08-03T16:35:04.340Z,16.90
2022-08-03T16:37:59.285Z,16.80
2022-08-03T16:40:54.161Z,16.80
2022-08-03T16:43:48.642Z,16.80
2022-08-03T16:46:44.290Z,16.80
2022-08-03T16:49:54.188Z,16.80
2022-08-03T16:52:50.770Z,16.80
2022-08-03T16:55:53.226Z,16.80
2022-08-03T16:58:50.367Z,16.80
2022-08-03T17:01:48.176Z,16.70
2022-08-03T17:04:43.665Z,16.70
2022-08-03T17:07:41.851Z,16.70
2022-08-03T17:10:44.567Z,16.70
2022-08-03T17:13:41.202Z,16.70
2022-08-03T17:16:38.778Z,16.80
2022-08-03T17:19:42.483Z,16.70
2022-08-03T17:23:00.629Z,16.80
2022-08-03T17:26:04.005Z,16.70
2022-08-03T17:29:12.641Z,16.70
2022-08-03T17:32:10.660Z,16.60
2022-08-03T17:35:09.473Z,16.60
2022-08-03T17:38:08.962Z,16.60
2022-08-03T17:41:10.863Z,16.50
2022-08-03T17:44:15.465Z,16.50
2022-08-03T17:47:12.204Z,16.50
2022-08-03T17:50:24.297Z,16.40
2022-08-03T17:53:28.817Z,16.40
2022-08-03T17:56:44.995Z,16.40
2022-08-03T17:59:52.168Z,16.40
2022-08-03T18:03:18.680Z,16.20
2022-08-03T18:06:15.308Z,16.20
2022-08-03T18:10:04.168Z,16.10
2022-08-03T18:13:00.974Z,16.10
2022-08-03T18:16:08.592Z,16.10
2022-08-03T18:19:09.317Z,16.10
2022-08-03T18:22:05.064Z,16.10
2022-08-03T18:25:00.734Z,16.00
2022-08-03T18:28:04.005Z,16.00
2022-08-03T18:30:58.992Z,15.90
2022-08-03T18:34:16.561Z,15.90
2022-08-03T18:37:09.065Z,15.90
2022-08-03T18:40:04.455Z,15.90
2022-08-03T18:43:08.976Z,15.90
2022-08-03T18:46:08.001Z,15.90
2022-08-03T18:49:20.911Z,15.80
2022-08-03T18:52:37.290Z,15.80
2022-08-03T18:55:59.324Z,15.80
2022-08-03T18:59:33.622Z,15.70
2022-08-03T19:03:00.129Z,15.70
2022-08-03T19:06:14.451Z,15.60
2022-08-03T19:09:20.896Z,15.60
2022-08-03T19:12:31.164Z,15.50
2022-08-03T19:15:36.953Z,15.50
2022-08-03T19:18:37.479Z,15.40
2022-08-03T19:21:35.125Z,15.40
2022-08-03T19:24:31.092Z,15.40
2022-08-03T19:27:28.268Z,15.40
2022-08-03T19:30:39.533Z,15.40
2022-08-03T19:33:55.705Z,15.40
2022-08-03T19:36:50.972Z,15.30
2022-08-03T19:39:47.266Z,15.30
2022-08-03T19:42:56.281Z,15.30
2022-08-03T19:46:05.764Z,15.30
2022-08-03T19:49:02.524Z,15.20
2022-08-03T19:52:03.188Z,15.20
2022-08-03T19:55:01.577Z,15.20
2022-08-03T19:58:02.292Z,15.20
2022-08-03T20:00:57.810Z,15.20
2022-08-03T20:03:54.113Z,15.20
2022-08-03T20:06:49.774Z,15.20
2022-08-03T20:09:46.277Z,15.20
2022-08-03T20:12:50.989Z,15.20
2022-08-03T20:15:46.855Z,15.20
2022-08-03T20:18:41.534Z,15.20
2022-08-03T20:21:37.625Z,15.20
2022-08-03T20:24:37.118Z,15.20
2022-08-03T20:28:07.976Z,15.20
2022-08-03T20:31:03.252Z,15.20
2022-08-03T20:33:57.857Z,15.10
2022-08-03T20:36:52.342Z,15.00
2022-08-03T20:39:49.551Z,15.00
2022-08-03T20:42:44.433Z,14.90
2022-08-03T20:46:00.360Z,15.00
2022-08-03T20:48:56.814Z,15.00
2022-08-03T20:51:54.512Z,15.00
2022-08-03T20:54:49.961Z,15.10
2022-08-03T20:57:49.241Z,15.10
2022-08-03T21:00:48.069Z,15.10
2022-08-03T21:03:55.392Z,15.10
2022-08-03T21:07:14.724Z,15.00
2022-08-03T21:10:15.448Z,15.00
2022-08-03T21:13:41.118Z,14.90
2022-08-03T21:16:39.334Z,14.90
2022-08-03T21:19:35.531Z,14.90
2022-08-03T21:22:34.431Z,14.90
2022-08-03T21:25:35.009Z,14.90
2022-08-03T21:28:30.634Z,15.00
2022-08-03T21:31:26.695Z,14.90
2022-08-03T21:34:23.122Z,15.00
2022-08-03T21:37:18.210Z,14.90
2022-08-03T21:40:15.537Z,14.90
2022-08-03T21:43:12.608Z,14.90
2022-08-03T21:46:09.368Z,14.90
2022-08-03T21:50:05.363Z,14.90
2022-08-03T21:52:26.318Z,14.90
2022-08-03T21:55:21.252Z,14.90
2022-08-03T21:58:18.895Z,15.00
2022-08-03T22:01:15.221Z,15.00
2022-08-03T22:04:11.933Z,15.00
2022-08-03T22:07:30.431Z,15.00
2022-08-03T22:10:25.201Z,15.00
2022-08-03T22:13:44.285Z,15.00
2022-08-03T22:16:35.180Z,15.10
2022-08-03T22:19:29.812Z,15.10
2022-08-03T22:22:29.761Z,15.10
2022-08-03T22:25:30.822Z,15.10
2022-08-03T22:28:31.566Z,15.20
2022-08-03T22:31:30.873Z,15.30
2022-08-03T22:34:44.530Z,15.30
2022-08-03T22:37:39.703Z,15.30
2022-08-03T22:40:35.902Z,15.40
2022-08-03T22:43:30.574Z,15.40
2022-08-03T22:46:26.105Z,15.40
2022-08-03T22:49:21.166Z,15.50
2022-08-03T22:52:16.632Z,15.50
2022-08-03T22:55:24.559Z,15.60
2022-08-03T22:58:22.173Z,15.60
2022-08-03T23:01:22.031Z,15.70
2022-08-03T23:04:17.163Z,15.70
2022-08-03T23:07:18.541Z,15.70
2022-08-03T23:10:16.209Z,15.70
2022-08-03T23:13:11.009Z,15.80
2022-08-03T23:16:08.519Z,15.90
2022-08-03T23:19:17.223Z,15.90
2022-08-03T23:22:30.464Z,16.00
2022-08-03T23:25:28.741Z,16.10
2022-08-03T23:28:24.808Z,16.20
2022-08-03T23:31:22.649Z,16.30
2022-08-03T23:34:36.445Z,16.50
2022-08-03T23:37:31.727Z,17.30
2022-08-03T23:40:32.454Z,17.80
2022-08-03T23:43:51.011Z,17.90
2022-08-03T23:46:45.642Z,18.00
2022-08-03T23:49:40.197Z,18.00
2022-08-03T23:52:44.140Z,17.90
2022-08-03T23:56:20.689Z,18.00
2022-08-03T23:59:45.802Z,18.00
